sensor_id;sensor_type;location;lat;lon;timestamp;P1;durP1;ratioP1;P2;durP2;ratioP2
75371;SDS011;63956;52.006;5.878;2023-04-01T00:04:10;4.93;;;1.90;;
75371;SDS011;63956;52.006;5.878;2023-04-01T00:06:39;4.82;;;2.03;;
75371;SDS011;63956;52.006;5.878;2023-04-01T00:11:37;3.25;;;1.60;;
75371;SDS011;63956;52.006;5.878;2023-04-01T00:16:36;4.22;;;1.60;;
75371;SDS011;63956;52.006;5.878;2023-04-01T00:19:05;3.83;;;1.88;;
75371;SDS011;63956;52.006;5.878;2023-04-01T00:21:37;3.47;;;1.58;;
75371;SDS011;63956;52.006;5.878;2023-04-01T00:24:06;5.32;;;2.30;;
75371;SDS011;63956;52.006;5.878;2023-04-01T00:26:36;4.78;;;2.58;;
75371;SDS011;63956;52.006;5.878;2023-04-01T00:29:06;6.50;;;2.78;;
75371;SDS011;63956;52.006;5.878;2023-04-01T00:31:35;3.58;;;1.38;;
75371;SDS011;63956;52.006;5.878;2023-04-01T00:34:04;3.35;;;0.63;;
75371;SDS011;63956;52.006;5.878;2023-04-01T00:36:33;4.78;;;2.92;;
75371;SDS011;63956;52.006;5.878;2023-04-01T00:39:05;4.18;;;1.98;;
75371;SDS011;63956;52.006;5.878;2023-04-01T00:41:35;4.82;;;2.72;;
75371;SDS011;63956;52.006;5.878;2023-04-01T00:44:17;4.15;;;2.75;;
75371;SDS011;63956;52.006;5.878;2023-04-01T00:46:49;4.82;;;2.13;;
75371;SDS011;63956;52.006;5.878;2023-04-01T00:49:18;6.93;;;4.30;;
75371;SDS011;63956;52.006;5.878;2023-04-01T00:51:53;6.38;;;3.67;;
75371;SDS011;63956;52.006;5.878;2023-04-01T00:54:25;8.13;;;3.95;;
75371;SDS011;63956;52.006;5.878;2023-04-01T00:56:57;6.97;;;4.20;;
75371;SDS011;63956;52.006;5.878;2023-04-01T00:59:29;7.07;;;3.92;;
75371;SDS011;63956;52.006;5.878;2023-04-01T01:02:02;7.47;;;4.43;;
75371;SDS011;63956;52.006;5.878;2023-04-01T01:04:34;7.38;;;5.43;;
75371;SDS011;63956;52.006;5.878;2023-04-01T01:07:10;7.85;;;4.47;;
75371;SDS011;63956;52.006;5.878;2023-04-01T01:09:48;7.78;;;5.43;;
75371;SDS011;63956;52.006;5.878;2023-04-01T01:12:28;6.80;;;4.55;;
75371;SDS011;63956;52.006;5.878;2023-04-01T01:15:06;9.25;;;6.18;;
75371;SDS011;63956;52.006;5.878;2023-04-01T01:17:44;11.77;;;5.32;;
75371;SDS011;63956;52.006;5.878;2023-04-01T01:23:36;9.02;;;4.78;;
75371;SDS011;63956;52.006;5.878;2023-04-01T01:29:25;11.30;;;4.93;;
75371;SDS011;63956;52.006;5.878;2023-04-01T01:32:03;6.95;;;4.68;;
75371;SDS011;63956;52.006;5.878;2023-04-01T01:37:20;6.28;;;4.35;;
75371;SDS011;63956;52.006;5.878;2023-04-01T01:39:54;8.60;;;4.60;;
75371;SDS011;63956;52.006;5.878;2023-04-01T01:42:26;7.50;;;4.82;;
75371;SDS011;63956;52.006;5.878;2023-04-01T01:44:59;6.72;;;3.28;;
75371;SDS011;63956;52.006;5.878;2023-04-01T01:47:30;7.68;;;3.72;;
75371;SDS011;63956;52.006;5.878;2023-04-01T01:50:03;11.45;;;4.88;;
75371;SDS011;63956;52.006;5.878;2023-04-01T01:52:36;9.15;;;3.72;;
75371;SDS011;63956;52.006;5.878;2023-04-01T01:57:55;8.45;;;3.70;;
75371;SDS011;63956;52.006;5.878;2023-04-01T02:00:29;6.18;;;3.55;;
75371;SDS011;63956;52.006;5.878;2023-04-01T02:02:59;9.18;;;4.40;;
75371;SDS011;63956;52.006;5.878;2023-04-01T02:05:29;10.13;;;5.35;;
75371;SDS011;63956;52.006;5.878;2023-04-01T02:08:09;6.65;;;2.30;;
75371;SDS011;63956;52.006;5.878;2023-04-01T02:10:42;9.93;;;2.85;;
75371;SDS011;63956;52.006;5.878;2023-04-01T02:13:19;13.60;;;4.95;;
75371;SDS011;63956;52.006;5.878;2023-04-01T02:15:53;15.48;;;5.55;;
75371;SDS011;63956;52.006;5.878;2023-04-01T02:18:25;15.13;;;5.15;;
75371;SDS011;63956;52.006;5.878;2023-04-01T02:20:55;10.88;;;4.45;;
75371;SDS011;63956;52.006;5.878;2023-04-01T02:23:29;14.23;;;6.15;;
75371;SDS011;63956;52.006;5.878;2023-04-01T02:25:59;13.27;;;5.20;;
75371;SDS011;63956;52.006;5.878;2023-04-01T02:28:28;8.98;;;4.18;;
75371;SDS011;63956;52.006;5.878;2023-04-01T02:31:00;9.95;;;2.70;;
75371;SDS011;63956;52.006;5.878;2023-04-01T02:33:31;12.40;;;4.43;;
75371;SDS011;63956;52.006;5.878;2023-04-01T02:36:00;10.15;;;4.57;;
75371;SDS011;63956;52.006;5.878;2023-04-01T02:38:32;11.65;;;3.28;;
75371;SDS011;63956;52.006;5.878;2023-04-01T02:41:04;7.65;;;3.70;;
75371;SDS011;63956;52.006;5.878;2023-04-01T02:43:34;7.65;;;3.20;;
75371;SDS011;63956;52.006;5.878;2023-04-01T02:46:03;9.02;;;3.47;;
75371;SDS011;63956;52.006;5.878;2023-04-01T02:48:32;14.00;;;4.10;;
75371;SDS011;63956;52.006;5.878;2023-04-01T02:51:02;4.72;;;1.02;;
75371;SDS011;63956;52.006;5.878;2023-04-01T02:53:34;6.85;;;2.72;;
75371;SDS011;63956;52.006;5.878;2023-04-01T02:56:04;5.97;;;3.08;;
75371;SDS011;63956;52.006;5.878;2023-04-01T02:58:33;6.55;;;2.40;;
75371;SDS011;63956;52.006;5.878;2023-04-01T03:01:02;7.28;;;3.70;;
75371;SDS011;63956;52.006;5.878;2023-04-01T03:03:31;6.45;;;2.45;;
75371;SDS011;63956;52.006;5.878;2023-04-01T03:08:36;5.75;;;2.20;;
75371;SDS011;63956;52.006;5.878;2023-04-01T03:11:05;4.47;;;1.33;;
75371;SDS011;63956;52.006;5.878;2023-04-01T03:13:36;7.47;;;1.00;;
75371;SDS011;63956;52.006;5.878;2023-04-01T03:16:06;4.55;;;2.17;;
75371;SDS011;63956;52.006;5.878;2023-04-01T03:18:36;3.67;;;1.90;;
75371;SDS011;63956;52.006;5.878;2023-04-01T03:23:54;5.28;;;2.17;;
75371;SDS011;63956;52.006;5.878;2023-04-01T03:26:24;4.15;;;2.28;;
75371;SDS011;63956;52.006;5.878;2023-04-01T03:28:54;4.72;;;2.38;;
75371;SDS011;63956;52.006;5.878;2023-04-01T03:31:23;6.70;;;2.85;;
75371;SDS011;63956;52.006;5.878;2023-04-01T03:33:56;7.40;;;2.70;;
75371;SDS011;63956;52.006;5.878;2023-04-01T03:36:25;4.72;;;2.17;;
75371;SDS011;63956;52.006;5.878;2023-04-01T03:41:35;6.28;;;1.33;;
75371;SDS011;63956;52.006;5.878;2023-04-01T03:44:05;7.85;;;3.70;;
75371;SDS011;63956;52.006;5.878;2023-04-01T03:46:34;8.32;;;2.20;;
75371;SDS011;63956;52.006;5.878;2023-04-01T03:49:06;5.22;;;3.25;;
75371;SDS011;63956;52.006;5.878;2023-04-01T03:51:37;9.98;;;3.75;;
75371;SDS011;63956;52.006;5.878;2023-04-01T03:54:09;7.53;;;3.70;;
75371;SDS011;63956;52.006;5.878;2023-04-01T03:56:39;5.30;;;3.05;;
75371;SDS011;63956;52.006;5.878;2023-04-01T03:59:09;7.13;;;3.58;;
75371;SDS011;63956;52.006;5.878;2023-04-01T04:04:07;7.80;;;3.33;;
75371;SDS011;63956;52.006;5.878;2023-04-01T04:06:40;5.40;;;2.60;;
75371;SDS011;63956;52.006;5.878;2023-04-01T04:09:12;6.10;;;2.45;;
75371;SDS011;63956;52.006;5.878;2023-04-01T04:11:41;6.40;;;3.80;;
75371;SDS011;63956;52.006;5.878;2023-04-01T04:16:39;4.57;;;2.45;;
75371;SDS011;63956;52.006;5.878;2023-04-01T04:19:09;5.80;;;3.03;;
75371;SDS011;63956;52.006;5.878;2023-04-01T04:24:08;4.63;;;1.38;;
75371;SDS011;63956;52.006;5.878;2023-04-01T04:26:59;5.75;;;2.67;;
75371;SDS011;63956;52.006;5.878;2023-04-01T04:31:59;4.88;;;2.35;;
75371;SDS011;63956;52.006;5.878;2023-04-01T04:34:28;6.13;;;2.72;;
75371;SDS011;63956;52.006;5.878;2023-04-01T04:36:58;6.07;;;2.83;;
75371;SDS011;63956;52.006;5.878;2023-04-01T04:39:34;7.78;;;4.18;;
75371;SDS011;63956;52.006;5.878;2023-04-01T04:42:03;5.13;;;3.00;;
75371;SDS011;63956;52.006;5.878;2023-04-01T04:44:32;5.38;;;2.75;;
75371;SDS011;63956;52.006;5.878;2023-04-01T04:49:31;5.32;;;3.22;;
75371;SDS011;63956;52.006;5.878;2023-04-01T04:52:05;6.70;;;3.67;;
75371;SDS011;63956;52.006;5.878;2023-04-01T04:54:37;4.50;;;3.13;;
75371;SDS011;63956;52.006;5.878;2023-04-01T04:57:06;4.60;;;2.78;;
75371;SDS011;63956;52.006;5.878;2023-04-01T04:59:43;5.07;;;2.38;;
75371;SDS011;63956;52.006;5.878;2023-04-01T05:02:17;4.20;;;2.45;;
75371;SDS011;63956;52.006;5.878;2023-04-01T05:04:47;4.15;;;1.10;;
75371;SDS011;63956;52.006;5.878;2023-04-01T05:09:47;3.88;;;2.15;;
75371;SDS011;63956;52.006;5.878;2023-04-01T05:12:16;4.72;;;3.17;;
75371;SDS011;63956;52.006;5.878;2023-04-01T05:15:12;3.55;;;2.42;;
75371;SDS011;63956;52.006;5.878;2023-04-01T05:17:41;6.30;;;3.03;;
75371;SDS011;63956;52.006;5.878;2023-04-01T05:20:11;6.75;;;3.60;;
75371;SDS011;63956;52.006;5.878;2023-04-01T05:22:41;8.05;;;3.25;;
75371;SDS011;63956;52.006;5.878;2023-04-01T05:25:14;4.50;;;2.58;;
75371;SDS011;63956;52.006;5.878;2023-04-01T05:27:43;3.80;;;1.98;;
75371;SDS011;63956;52.006;5.878;2023-04-01T05:30:12;4.32;;;1.10;;
75371;SDS011;63956;52.006;5.878;2023-04-01T05:33:02;4.28;;;2.05;;
75371;SDS011;63956;52.006;5.878;2023-04-01T05:35:32;4.97;;;2.90;;
75371;SDS011;63956;52.006;5.878;2023-04-01T05:38:01;4.88;;;2.05;;
75371;SDS011;63956;52.006;5.878;2023-04-01T05:40:33;3.72;;;2.10;;
75371;SDS011;63956;52.006;5.878;2023-04-01T05:43:03;4.03;;;2.45;;
75371;SDS011;63956;52.006;5.878;2023-04-01T05:45:32;5.55;;;2.80;;
75371;SDS011;63956;52.006;5.878;2023-04-01T05:48:30;4.50;;;2.30;;
75371;SDS011;63956;52.006;5.878;2023-04-01T05:50:59;5.15;;;2.03;;
75371;SDS011;63956;52.006;5.878;2023-04-01T05:53:29;3.70;;;1.88;;
75371;SDS011;63956;52.006;5.878;2023-04-01T05:56:04;5.50;;;3.38;;
75371;SDS011;63956;52.006;5.878;2023-04-01T05:58:38;4.38;;;2.25;;
75371;SDS011;63956;52.006;5.878;2023-04-01T06:01:09;8.15;;;3.50;;
75371;SDS011;63956;52.006;5.878;2023-04-01T06:03:39;5.90;;;3.25;;
75371;SDS011;63956;52.006;5.878;2023-04-01T06:06:10;7.28;;;3.88;;
75371;SDS011;63956;52.006;5.878;2023-04-01T06:08:43;5.50;;;2.60;;
75371;SDS011;63956;52.006;5.878;2023-04-01T06:11:19;8.95;;;4.22;;
75371;SDS011;63956;52.006;5.878;2023-04-01T06:14:03;9.52;;;4.10;;
75371;SDS011;63956;52.006;5.878;2023-04-01T06:16:46;11.60;;;4.22;;
75371;SDS011;63956;52.006;5.878;2023-04-01T06:19:26;6.95;;;2.88;;
75371;SDS011;63956;52.006;5.878;2023-04-01T06:22:12;10.07;;;4.32;;
75371;SDS011;63956;52.006;5.878;2023-04-01T06:25:18;5.95;;;2.92;;
75371;SDS011;63956;52.006;5.878;2023-04-01T06:28:05;8.40;;;3.75;;
75371;SDS011;63956;52.006;5.878;2023-04-01T06:30:57;6.55;;;3.17;;
75371;SDS011;63956;52.006;5.878;2023-04-01T06:33:45;8.95;;;3.72;;
75371;SDS011;63956;52.006;5.878;2023-04-01T06:36:25;10.20;;;4.22;;
75371;SDS011;63956;52.006;5.878;2023-04-01T06:39:14;8.82;;;4.13;;
75371;SDS011;63956;52.006;5.878;2023-04-01T06:42:04;5.55;;;2.50;;
75371;SDS011;63956;52.006;5.878;2023-04-01T06:44:46;7.40;;;3.97;;
75371;SDS011;63956;52.006;5.878;2023-04-01T06:47:45;8.10;;;3.60;;
75371;SDS011;63956;52.006;5.878;2023-04-01T06:50:44;6.63;;;3.70;;
75371;SDS011;63956;52.006;5.878;2023-04-01T06:53:40;6.00;;;2.78;;
75371;SDS011;63956;52.006;5.878;2023-04-01T06:56:35;5.55;;;2.58;;
75371;SDS011;63956;52.006;5.878;2023-04-01T06:59:14;7.82;;;3.60;;
75371;SDS011;63956;52.006;5.878;2023-04-01T07:01:51;10.48;;;3.25;;
75371;SDS011;63956;52.006;5.878;2023-04-01T07:04:25;4.65;;;2.08;;
75371;SDS011;63956;52.006;5.878;2023-04-01T07:06:58;5.50;;;2.95;;
75371;SDS011;63956;52.006;5.878;2023-04-01T07:09:31;4.35;;;1.83;;
75371;SDS011;63956;52.006;5.878;2023-04-01T07:12:24;4.82;;;2.60;;
75371;SDS011;63956;52.006;5.878;2023-04-01T07:15:21;4.18;;;1.95;;
75371;SDS011;63956;52.006;5.878;2023-04-01T07:17:58;3.50;;;0.73;;
75371;SDS011;63956;52.006;5.878;2023-04-01T07:20:32;5.07;;;2.85;;
75371;SDS011;63956;52.006;5.878;2023-04-01T07:23:06;4.72;;;2.42;;
75371;SDS011;63956;52.006;5.878;2023-04-01T07:26:06;5.50;;;1.98;;
75371;SDS011;63956;52.006;5.878;2023-04-01T07:29:01;4.25;;;2.17;;
75371;SDS011;63956;52.006;5.878;2023-04-01T07:31:44;4.53;;;2.25;;
75371;SDS011;63956;52.006;5.878;2023-04-01T07:34:25;4.15;;;2.38;;
75371;SDS011;63956;52.006;5.878;2023-04-01T07:36:57;3.97;;;1.85;;
75371;SDS011;63956;52.006;5.878;2023-04-01T07:42:27;3.63;;;1.52;;
75371;SDS011;63956;52.006;5.878;2023-04-01T07:45:06;3.47;;;1.67;;
75371;SDS011;63956;52.006;5.878;2023-04-01T07:47:47;3.10;;;1.83;;
75371;SDS011;63956;52.006;5.878;2023-04-01T07:50:29;2.75;;;0.65;;
75371;SDS011;63956;52.006;5.878;2023-04-01T07:53:05;3.10;;;0.68;;
75371;SDS011;63956;52.006;5.878;2023-04-01T07:55:42;4.03;;;1.90;;
75371;SDS011;63956;52.006;5.878;2023-04-01T07:58:17;3.30;;;1.58;;
75371;SDS011;63956;52.006;5.878;2023-04-01T08:00:57;3.95;;;1.75;;
75371;SDS011;63956;52.006;5.878;2023-04-01T08:03:45;3.63;;;2.00;;
75371;SDS011;63956;52.006;5.878;2023-04-01T08:06:31;2.67;;;0.70;;
75371;SDS011;63956;52.006;5.878;2023-04-01T08:09:09;3.17;;;1.45;;
75371;SDS011;63956;52.006;5.878;2023-04-01T08:12:08;3.58;;;2.38;;
75371;SDS011;63956;52.006;5.878;2023-04-01T08:15:01;3.45;;;1.77;;
75371;SDS011;63956;52.006;5.878;2023-04-01T08:18:01;3.08;;;1.63;;
75371;SDS011;63956;52.006;5.878;2023-04-01T08:20:37;4.03;;;1.83;;
75371;SDS011;63956;52.006;5.878;2023-04-01T08:23:14;4.03;;;1.58;;
75371;SDS011;63956;52.006;5.878;2023-04-01T08:25:48;3.03;;;1.50;;
75371;SDS011;63956;52.006;5.878;2023-04-01T08:28:24;4.97;;;2.13;;
75371;SDS011;63956;52.006;5.878;2023-04-01T08:31:03;4.47;;;1.58;;
75371;SDS011;63956;52.006;5.878;2023-04-01T08:33:36;2.80;;;1.27;;
75371;SDS011;63956;52.006;5.878;2023-04-01T08:36:12;2.95;;;1.20;;
75371;SDS011;63956;52.006;5.878;2023-04-01T08:38:54;3.33;;;1.52;;
75371;SDS011;63956;52.006;5.878;2023-04-01T08:41:40;2.25;;;1.10;;
75371;SDS011;63956;52.006;5.878;2023-04-01T08:44:58;2.53;;;1.80;;
75371;SDS011;63956;52.006;5.878;2023-04-01T08:48:06;1.95;;;1.13;;
75371;SDS011;63956;52.006;5.878;2023-04-01T08:51:01;2.72;;;1.30;;
75371;SDS011;63956;52.006;5.878;2023-04-01T08:56:47;1.85;;;1.02;;
75371;SDS011;63956;52.006;5.878;2023-04-01T08:59:31;2.58;;;1.35;;
75371;SDS011;63956;52.006;5.878;2023-04-01T09:02:55;2.70;;;1.27;;
75371;SDS011;63956;52.006;5.878;2023-04-01T09:09:01;2.05;;;0.50;;
75371;SDS011;63956;52.006;5.878;2023-04-01T09:12:01;3.58;;;2.35;;
75371;SDS011;63956;52.006;5.878;2023-04-01T09:15:01;1.20;;;0.57;;
75371;SDS011;63956;52.006;5.878;2023-04-01T09:23:43;3.40;;;1.45;;
75371;SDS011;63956;52.006;5.878;2023-04-01T09:29:26;2.88;;;1.55;;
75371;SDS011;63956;52.006;5.878;2023-04-01T09:32:21;3.20;;;2.13;;
75371;SDS011;63956;52.006;5.878;2023-04-01T09:35:22;3.00;;;1.92;;
75371;SDS011;63956;52.006;5.878;2023-04-01T09:38:00;4.97;;;2.63;;
75371;SDS011;63956;52.006;5.878;2023-04-01T09:40:45;2.10;;;0.57;;
75371;SDS011;63956;52.006;5.878;2023-04-01T09:43:38;3.10;;;1.80;;
75371;SDS011;63956;52.006;5.878;2023-04-01T09:46:26;3.17;;;2.13;;
75371;SDS011;63956;52.006;5.878;2023-04-01T09:49:13;3.00;;;1.30;;
75371;SDS011;63956;52.006;5.878;2023-04-01T09:51:58;3.30;;;2.72;;
75371;SDS011;63956;52.006;5.878;2023-04-01T09:54:45;2.95;;;1.45;;
75371;SDS011;63956;52.006;5.878;2023-04-01T09:57:37;2.65;;;1.35;;
75371;SDS011;63956;52.006;5.878;2023-04-01T10:00:56;3.22;;;1.27;;
75371;SDS011;63956;52.006;5.878;2023-04-01T10:06:57;3.85;;;1.38;;
75371;SDS011;63956;52.006;5.878;2023-04-01T10:09:48;3.50;;;0.75;;
75371;SDS011;63956;52.006;5.878;2023-04-01T10:12:46;3.70;;;1.55;;
75371;SDS011;63956;52.006;5.878;2023-04-01T10:15:35;4.15;;;1.83;;
75371;SDS011;63956;52.006;5.878;2023-04-01T10:18:43;3.25;;;1.67;;
75371;SDS011;63956;52.006;5.878;2023-04-01T10:24:41;3.85;;;1.48;;
75371;SDS011;63956;52.006;5.878;2023-04-01T10:27:41;4.63;;;2.00;;
75371;SDS011;63956;52.006;5.878;2023-04-01T10:36:40;4.85;;;2.58;;
75371;SDS011;63956;52.006;5.878;2023-04-01T10:39:20;5.63;;;3.53;;
75371;SDS011;63956;52.006;5.878;2023-04-01T10:42:27;4.45;;;2.47;;
75371;SDS011;63956;52.006;5.878;2023-04-01T10:45:46;5.30;;;1.33;;
75371;SDS011;63956;52.006;5.878;2023-04-01T10:49:01;3.53;;;0.93;;
75371;SDS011;63956;52.006;5.878;2023-04-01T10:55:26;7.00;;;3.47;;
75371;SDS011;63956;52.006;5.878;2023-04-01T10:58:44;8.48;;;3.42;;
75371;SDS011;63956;52.006;5.878;2023-04-01T11:02:03;5.28;;;2.80;;
75371;SDS011;63956;52.006;5.878;2023-04-01T11:14:41;5.90;;;3.22;;
75371;SDS011;63956;52.006;5.878;2023-04-01T11:23:42;3.45;;;1.88;;
75371;SDS011;63956;52.006;5.878;2023-04-01T11:26:28;3.25;;;1.88;;
75371;SDS011;63956;52.006;5.878;2023-04-01T11:29:27;3.45;;;1.58;;
75371;SDS011;63956;52.006;5.878;2023-04-01T11:32:29;2.92;;;1.48;;
75371;SDS011;63956;52.006;5.878;2023-04-01T11:35:22;3.97;;;0.77;;
75371;SDS011;63956;52.006;5.878;2023-04-01T11:38:05;2.47;;;1.20;;
75371;SDS011;63956;52.006;5.878;2023-04-01T11:40:47;4.88;;;1.58;;
75371;SDS011;63956;52.006;5.878;2023-04-01T11:43:29;2.72;;;1.27;;
75371;SDS011;63956;52.006;5.878;2023-04-01T11:46:28;2.72;;;1.33;;
75371;SDS011;63956;52.006;5.878;2023-04-01T11:49:21;2.67;;;1.40;;
75371;SDS011;63956;52.006;5.878;2023-04-01T11:52:14;2.95;;;2.00;;
75371;SDS011;63956;52.006;5.878;2023-04-01T11:55:10;2.20;;;1.20;;
75371;SDS011;63956;52.006;5.878;2023-04-01T11:57:53;2.47;;;1.17;;
75371;SDS011;63956;52.006;5.878;2023-04-01T12:03:42;3.88;;;1.23;;
75371;SDS011;63956;52.006;5.878;2023-04-01T12:06:23;3.03;;;1.45;;
75371;SDS011;63956;52.006;5.878;2023-04-01T12:09:02;4.95;;;1.25;;
75371;SDS011;63956;52.006;5.878;2023-04-01T12:11:43;2.67;;;1.02;;
75371;SDS011;63956;52.006;5.878;2023-04-01T12:14:19;2.17;;;1.10;;
75371;SDS011;63956;52.006;5.878;2023-04-01T12:16:58;3.42;;;1.23;;
75371;SDS011;63956;52.006;5.878;2023-04-01T12:19:39;2.30;;;1.08;;
75371;SDS011;63956;52.006;5.878;2023-04-01T12:22:23;2.38;;;1.05;;
75371;SDS011;63956;52.006;5.878;2023-04-01T12:25:05;2.55;;;1.23;;
75371;SDS011;63956;52.006;5.878;2023-04-01T12:27:51;3.15;;;1.73;;
75371;SDS011;63956;52.006;5.878;2023-04-01T12:30:34;2.97;;;1.50;;
75371;SDS011;63956;52.006;5.878;2023-04-01T12:36:23;2.88;;;1.33;;
75371;SDS011;63956;52.006;5.878;2023-04-01T12:39:07;3.33;;;1.50;;
75371;SDS011;63956;52.006;5.878;2023-04-01T12:41:48;3.50;;;1.52;;
75371;SDS011;63956;52.006;5.878;2023-04-01T12:50:09;3.88;;;1.85;;
75371;SDS011;63956;52.006;5.878;2023-04-01T12:52:58;4.45;;;2.25;;
75371;SDS011;63956;52.006;5.878;2023-04-01T12:55:39;2.42;;;0.35;;
75371;SDS011;63956;52.006;5.878;2023-04-01T12:58:30;3.58;;;1.83;;
75371;SDS011;63956;52.006;5.878;2023-04-01T13:10:24;3.13;;;1.42;;
75371;SDS011;63956;52.006;5.878;2023-04-01T13:13:04;4.00;;;2.05;;
75371;SDS011;63956;52.006;5.878;2023-04-01T13:16:01;4.15;;;2.20;;
75371;SDS011;63956;52.006;5.878;2023-04-01T13:21:09;2.55;;;1.20;;
75371;SDS011;63956;52.006;5.878;2023-04-01T13:23:53;2.83;;;1.50;;
75371;SDS011;63956;52.006;5.878;2023-04-01T13:26:32;4.20;;;1.77;;
75371;SDS011;63956;52.006;5.878;2023-04-01T13:29:06;3.30;;;1.73;;
75371;SDS011;63956;52.006;5.878;2023-04-01T13:31:45;3.38;;;1.73;;
75371;SDS011;63956;52.006;5.878;2023-04-01T13:34:28;3.50;;;1.88;;
75371;SDS011;63956;52.006;5.878;2023-04-01T13:37:11;3.03;;;1.90;;
75371;SDS011;63956;52.006;5.878;2023-04-01T13:39:55;5.47;;;1.65;;
75371;SDS011;63956;52.006;5.878;2023-04-01T13:42:35;3.33;;;1.58;;
75371;SDS011;63956;52.006;5.878;2023-04-01T13:45:10;2.70;;;1.27;;
75371;SDS011;63956;52.006;5.878;2023-04-01T13:47:49;3.03;;;1.67;;
75371;SDS011;63956;52.006;5.878;2023-04-01T13:50:34;2.85;;;1.25;;
75371;SDS011;63956;52.006;5.878;2023-04-01T13:53:23;2.40;;;1.05;;
75371;SDS011;63956;52.006;5.878;2023-04-01T13:56:15;1.48;;;0.52;;
75371;SDS011;63956;52.006;5.878;2023-04-01T13:59:00;3.08;;;2.50;;
75371;SDS011;63956;52.006;5.878;2023-04-01T14:02:04;1.70;;;0.50;;
75371;SDS011;63956;52.006;5.878;2023-04-01T14:04:59;2.80;;;2.42;;
75371;SDS011;63956;52.006;5.878;2023-04-01T14:07:42;1.58;;;0.40;;
75371;SDS011;63956;52.006;5.878;2023-04-01T14:10:25;2.80;;;1.80;;
75371;SDS011;63956;52.006;5.878;2023-04-01T14:13:02;2.88;;;1.52;;
75371;SDS011;63956;52.006;5.878;2023-04-01T14:15:46;4.07;;;1.48;;
75371;SDS011;63956;52.006;5.878;2023-04-01T14:18:32;2.40;;;1.23;;
75371;SDS011;63956;52.006;5.878;2023-04-01T14:21:26;2.70;;;1.17;;
75371;SDS011;63956;52.006;5.878;2023-04-01T14:24:06;2.65;;;1.45;;
75371;SDS011;63956;52.006;5.878;2023-04-01T14:27:09;2.45;;;1.45;;
75371;SDS011;63956;52.006;5.878;2023-04-01T14:29:57;2.70;;;1.45;;
75371;SDS011;63956;52.006;5.878;2023-04-01T14:32:42;3.15;;;2.60;;
75371;SDS011;63956;52.006;5.878;2023-04-01T14:41:00;2.63;;;1.23;;
75371;SDS011;63956;52.006;5.878;2023-04-01T14:43:53;2.75;;;1.30;;
75371;SDS011;63956;52.006;5.878;2023-04-01T14:47:03;3.08;;;1.58;;
75371;SDS011;63956;52.006;5.878;2023-04-01T14:49:44;2.90;;;1.60;;
75371;SDS011;63956;52.006;5.878;2023-04-01T14:52:16;3.22;;;1.70;;
75371;SDS011;63956;52.006;5.878;2023-04-01T14:54:53;3.30;;;1.77;;
75371;SDS011;63956;52.006;5.878;2023-04-01T14:57:23;3.65;;;1.70;;
75371;SDS011;63956;52.006;5.878;2023-04-01T14:59:54;3.38;;;1.75;;
75371;SDS011;63956;52.006;5.878;2023-04-01T15:05:20;3.17;;;1.63;;
75371;SDS011;63956;52.006;5.878;2023-04-01T15:10:58;3.83;;;2.28;;
75371;SDS011;63956;52.006;5.878;2023-04-01T15:13:44;3.92;;;2.92;;
75371;SDS011;63956;52.006;5.878;2023-04-01T15:16:25;3.70;;;1.33;;
75371;SDS011;63956;52.006;5.878;2023-04-01T15:19:01;3.40;;;1.95;;
75371;SDS011;63956;52.006;5.878;2023-04-01T15:21:47;4.22;;;2.80;;
75371;SDS011;63956;52.006;5.878;2023-04-01T15:24:30;4.00;;;2.47;;
75371;SDS011;63956;52.006;5.878;2023-04-01T15:30:17;4.38;;;1.85;;
75371;SDS011;63956;52.006;5.878;2023-04-01T15:32:57;3.65;;;2.08;;
75371;SDS011;63956;52.006;5.878;2023-04-01T15:35:42;2.95;;;1.50;;
75371;SDS011;63956;52.006;5.878;2023-04-01T15:38:24;4.10;;;2.55;;
75371;SDS011;63956;52.006;5.878;2023-04-01T15:41:02;4.40;;;2.78;;
75371;SDS011;63956;52.006;5.878;2023-04-01T15:43:40;3.38;;;1.13;;
75371;SDS011;63956;52.006;5.878;2023-04-01T15:46:23;3.92;;;2.38;;
75371;SDS011;63956;52.006;5.878;2023-04-01T15:49:14;6.88;;;2.10;;
75371;SDS011;63956;52.006;5.878;2023-04-01T15:51:55;3.80;;;2.92;;
75371;SDS011;63956;52.006;5.878;2023-04-01T15:57:40;3.70;;;2.05;;
75371;SDS011;63956;52.006;5.878;2023-04-01T16:00:25;3.53;;;1.67;;
75371;SDS011;63956;52.006;5.878;2023-04-01T16:03:06;3.80;;;1.98;;
75371;SDS011;63956;52.006;5.878;2023-04-01T16:05:48;4.05;;;2.30;;
75371;SDS011;63956;52.006;5.878;2023-04-01T16:11:26;3.45;;;2.03;;
75371;SDS011;63956;52.006;5.878;2023-04-01T16:14:07;4.03;;;3.28;;
75371;SDS011;63956;52.006;5.878;2023-04-01T16:16:50;3.38;;;2.15;;
75371;SDS011;63956;52.006;5.878;2023-04-01T16:19:31;3.40;;;1.65;;
75371;SDS011;63956;52.006;5.878;2023-04-01T16:22:07;3.72;;;1.80;;
75371;SDS011;63956;52.006;5.878;2023-04-01T16:24:43;4.85;;;2.78;;
75371;SDS011;63956;52.006;5.878;2023-04-01T16:27:23;5.65;;;3.05;;
75371;SDS011;63956;52.006;5.878;2023-04-01T16:29:56;3.13;;;0.93;;
75371;SDS011;63956;52.006;5.878;2023-04-01T16:32:32;4.18;;;2.35;;
75371;SDS011;63956;52.006;5.878;2023-04-01T16:38:05;4.43;;;2.65;;
75371;SDS011;63956;52.006;5.878;2023-04-01T16:40:42;3.33;;;1.13;;
75371;SDS011;63956;52.006;5.878;2023-04-01T16:43:20;4.28;;;2.60;;
75371;SDS011;63956;52.006;5.878;2023-04-01T16:45:58;4.15;;;1.33;;
75371;SDS011;63956;52.006;5.878;2023-04-01T16:48:49;4.28;;;2.95;;
75371;SDS011;63956;52.006;5.878;2023-04-01T16:51:33;3.60;;;2.15;;
75371;SDS011;63956;52.006;5.878;2023-04-01T16:54:11;4.05;;;1.98;;
75371;SDS011;63956;52.006;5.878;2023-04-01T16:56:47;3.63;;;2.08;;
75371;SDS011;63956;52.006;5.878;2023-04-01T16:59:22;4.30;;;1.92;;
75371;SDS011;63956;52.006;5.878;2023-04-01T17:01:57;4.90;;;3.08;;
75371;SDS011;63956;52.006;5.878;2023-04-01T17:04:37;3.83;;;2.03;;
75371;SDS011;63956;52.006;5.878;2023-04-01T17:07:14;3.85;;;2.22;;
75371;SDS011;63956;52.006;5.878;2023-04-01T17:13:01;5.20;;;3.13;;
75371;SDS011;63956;52.006;5.878;2023-04-01T17:15:46;5.20;;;2.78;;
75371;SDS011;63956;52.006;5.878;2023-04-01T17:18:26;5.15;;;2.63;;
75371;SDS011;63956;52.006;5.878;2023-04-01T17:21:10;4.80;;;2.42;;
75371;SDS011;63956;52.006;5.878;2023-04-01T17:23:43;4.65;;;3.28;;
75371;SDS011;63956;52.006;5.878;2023-04-01T17:26:27;4.35;;;2.00;;
75371;SDS011;63956;52.006;5.878;2023-04-01T17:29:03;4.72;;;2.88;;
75371;SDS011;63956;52.006;5.878;2023-04-01T17:31:46;3.88;;;2.00;;
75371;SDS011;63956;52.006;5.878;2023-04-01T17:34:24;4.13;;;2.25;;
75371;SDS011;63956;52.006;5.878;2023-04-01T17:37:06;3.45;;;2.00;;
75371;SDS011;63956;52.006;5.878;2023-04-01T17:39:54;3.97;;;2.13;;
75371;SDS011;63956;52.006;5.878;2023-04-01T17:42:34;4.13;;;2.30;;
75371;SDS011;63956;52.006;5.878;2023-04-01T17:45:11;4.45;;;2.65;;
75371;SDS011;63956;52.006;5.878;2023-04-01T17:47:55;6.65;;;4.20;;
75371;SDS011;63956;52.006;5.878;2023-04-01T17:50:43;6.00;;;4.32;;
75371;SDS011;63956;52.006;5.878;2023-04-01T17:53:20;7.10;;;5.05;;
75371;SDS011;63956;52.006;5.878;2023-04-01T17:56:02;7.78;;;5.28;;
75371;SDS011;63956;52.006;5.878;2023-04-01T17:58:41;5.82;;;2.55;;
75371;SDS011;63956;52.006;5.878;2023-04-01T18:01:19;5.85;;;3.97;;
75371;SDS011;63956;52.006;5.878;2023-04-01T18:07:01;4.82;;;2.78;;
75371;SDS011;63956;52.006;5.878;2023-04-01T18:09:50;4.82;;;3.42;;
75371;SDS011;63956;52.006;5.878;2023-04-01T18:12:29;4.55;;;2.67;;
75371;SDS011;63956;52.006;5.878;2023-04-01T18:15:09;3.97;;;1.95;;
75371;SDS011;63956;52.006;5.878;2023-04-01T18:17:51;4.50;;;3.05;;
75371;SDS011;63956;52.006;5.878;2023-04-01T18:20:39;3.45;;;2.13;;
75371;SDS011;63956;52.006;5.878;2023-04-01T18:23:24;3.90;;;2.47;;
75371;SDS011;63956;52.006;5.878;2023-04-01T18:26:02;4.25;;;2.00;;
75371;SDS011;63956;52.006;5.878;2023-04-01T18:28:37;4.47;;;2.90;;
75371;SDS011;63956;52.006;5.878;2023-04-01T18:31:11;5.72;;;4.03;;
75371;SDS011;63956;52.006;5.878;2023-04-01T18:33:49;4.45;;;2.53;;